Kish International Airport


Codes: OIBK/KIH
Name: Kish International Airport
City: Kish Island
Country: Iran
Elevation: 101 ft.
Wikipedia:

Photos at Kish International Airport


   Photos courtesy of SpottingLog. You can add your own sightings and photos by signing up for a free trial today.



No photos found.

Weather at Kish International Airport


Time (UTC)DescriptionTempratureWindCloud coverageVisibilityPressureHumidity
13-Jun-2024 00:00Clear Sky30°C4 mph, W0%10000m999hPa89%
13-Jun-2024 03:00Clear Sky30°C11 mph, E0%10000m1000hPa86%
13-Jun-2024 06:00Clear Sky31°C4 mph, S0%10000m1001hPa78%
13-Jun-2024 09:00Clear Sky34°C11 mph, SW0%10000m1000hPa59%
13-Jun-2024 12:00Clear Sky34°C27 mph, W0%10000m998hPa48%
13-Jun-2024 15:00Clear Sky33°C27 mph, W0%10000m998hPa58%
13-Jun-2024 18:00Clear Sky32°C22 mph, W0%10000m998hPa63%
13-Jun-2024 21:00Clear Sky31°C20 mph, W0%10000m997hPa66%
14-Jun-2024 00:00Clear Sky31°C13 mph, NW0%10000m997hPa66%
14-Jun-2024 03:00Clear Sky31°C4 mph, NW0%10000m998hPa59%
14-Jun-2024 06:00Clear Sky31°C2 mph, W0%10000m999hPa67%
14-Jun-2024 09:00Clear Sky31°C11 mph, W0%10000m999hPa66%
14-Jun-2024 12:00Clear Sky32°C16 mph, W0%10000m998hPa67%
14-Jun-2024 15:00Clear Sky32°C13 mph, W0%10000m997hPa65%
14-Jun-2024 18:00Clear Sky31°C11 mph, W0%10000m998hPa66%
14-Jun-2024 21:00Clear Sky31°C9 mph, W0%10000m997hPa68%
15-Jun-2024 00:00Clear Sky31°C9 mph, E0%10000m997hPa70%
15-Jun-2024 03:00Clear Sky30°C11 mph, E0%10000m999hPa78%
15-Jun-2024 06:00Clear Sky31°C11 mph, SE0%10000m1000hPa75%
15-Jun-2024 09:00Clear Sky31°C7 mph, SE0%10000m1000hPa68%
15-Jun-2024 12:00Clear Sky32°C4 mph, S0%10000m998hPa64%
15-Jun-2024 15:00Clear Sky32°C2 mph, W0%10000m999hPa64%
15-Jun-2024 18:00Clear Sky31°C2 mph, NW0%10000m1000hPa63%
15-Jun-2024 21:00Clear Sky32°C4 mph, NE0%10000m999hPa57%
16-Jun-2024 00:00Clear Sky31°C13 mph, NE0%10000m999hPa58%
16-Jun-2024 03:00Clear Sky31°C11 mph, E0%10000m1001hPa61%
16-Jun-2024 06:00Clear Sky32°C9 mph, E0%10000m1002hPa51%
16-Jun-2024 09:00Clear Sky32°C11 mph, SE0%10000m1001hPa65%
16-Jun-2024 12:00Clear Sky33°C7 mph, SE0%10000m1000hPa63%
16-Jun-2024 15:00Clear Sky32°C11 mph, NW0%10000m1000hPa64%
16-Jun-2024 18:00Clear Sky32°C11 mph, NW0%10000m1001hPa60%
16-Jun-2024 21:00Clear Sky32°C7 mph, SE0%10000m1000hPa58%
17-Jun-2024 00:00Clear Sky31°C7 mph, NW0%10000m1000hPa61%
17-Jun-2024 03:00Clear Sky33°C7 mph, N0%10000m1001hPa48%
17-Jun-2024 06:00Clear Sky34°C4 mph, SE0%10000m1002hPa48%
17-Jun-2024 09:00Clear Sky34°C2 mph, SE0%10000m1002hPa54%
17-Jun-2024 12:00Clear Sky35°C4 mph, NW0%10000m1000hPa46%
17-Jun-2024 15:00Clear Sky33°C11 mph, NW0%10000m1000hPa50%
17-Jun-2024 18:00Clear Sky32°C11 mph, NW0%10000m1000hPa60%
17-Jun-2024 21:00Clear Sky34°C9 mph, N4%10000m999hPa50%